Terminal Aerodrome Forecast
Issued by NWS

Home | Current Version | Previous Version | Text Only | Print | Product List | Glossary Off
Versions: 1 2 3 4 5 6 7 8 9 10 11 12 13 14 15 16 17 18

905
FTUS43 KFGF 081137
TAFBJI
TAF
KBJI 081137Z 0812/0912 32016G22KT P6SM -SN SCT015 BKN120
      TEMPO 0812/0814 5SM -SN BKN015
     FM081500 32017KT P6SM BKN025
     FM090100 31011KT P6SM SCT050=

USA.gov is the U.S. government's official web portal to all federal, state and local government web resources and services.